createdAt,value
2022-12-17T00:01:27.807Z,2.90
2022-12-17T00:04:15.851Z,3.60
2022-12-17T00:07:12.452Z,3.90
2022-12-17T00:10:08.860Z,3.10
2022-12-17T00:12:56.700Z,3.40
2022-12-17T00:15:45.071Z,3.00
2022-12-17T00:18:33.525Z,2.10
2022-12-17T00:21:22.431Z,2.10
2022-12-17T00:24:10.881Z,2.50
2022-12-17T00:26:59.434Z,2.60
2022-12-17T00:29:49.869Z,1.90
2022-12-17T00:32:39.848Z,2.20
2022-12-17T00:35:28.210Z,2.60
2022-12-17T00:38:16.195Z,3.30
2022-12-17T00:41:05.488Z,4.10
2022-12-17T00:43:53.436Z,5.40
2022-12-17T00:46:44.393Z,4.90
2022-12-17T00:49:32.161Z,3.40
2022-12-17T00:52:24.978Z,3.10
2022-12-17T00:55:12.841Z,3.20
2022-12-17T00:58:01.115Z,2.20
2022-12-17T01:00:49.456Z,2.30
2022-12-17T01:03:37.731Z,2.40
2022-12-17T01:06:28.735Z,2.70
2022-12-17T01:09:16.836Z,3.00
2022-12-17T01:12:04.746Z,2.40
2022-12-17T01:14:52.538Z,2.70
2022-12-17T01:17:40.403Z,1.90
2022-12-17T01:20:29.472Z,2.00
2022-12-17T01:23:17.405Z,2.10
2022-12-17T01:26:12.723Z,2.90
2022-12-17T01:29:00.988Z,3.20
2022-12-17T01:31:48.747Z,4.10
2022-12-17T01:34:37.987Z,4.30
2022-12-17T01:37:26.121Z,3.50
2022-12-17T01:40:13.889Z,3.20
2022-12-17T01:43:03.506Z,3.10
2022-12-17T01:45:56.324Z,3.20
2022-12-17T01:48:48.420Z,3.30
2022-12-17T01:51:37.427Z,2.90
2022-12-17T01:54:25.728Z,2.30
2022-12-17T01:57:15.269Z,2.50
2022-12-17T02:00:07.014Z,2.60
2022-12-17T02:03:02.116Z,2.10
2022-12-17T02:05:56.261Z,2.40
2022-12-17T02:08:57.188Z,2.60
2022-12-17T02:11:52.181Z,1.80
2022-12-17T02:14:44.514Z,1.90
2022-12-17T02:17:36.201Z,1.60
2022-12-17T02:20:37.919Z,2.60
2022-12-17T02:23:32.479Z,4.00
2022-12-17T02:26:22.932Z,3.40
2022-12-17T02:29:11.995Z,3.10
2022-12-17T02:32:01.545Z,2.80
2022-12-17T02:34:49.893Z,3.40
2022-12-17T02:37:37.643Z,2.80
2022-12-17T02:40:27.073Z,2.60
2022-12-17T02:43:14.966Z,3.30
2022-12-17T02:46:03.448Z,2.90
2022-12-17T02:48:52.209Z,2.50
2022-12-17T02:51:40.580Z,2.30
2022-12-17T02:54:27.712Z,2.10
2022-12-17T02:57:15.706Z,2.50
2022-12-17T03:00:06.051Z,2.80
2022-12-17T03:02:53.808Z,2.90
2022-12-17T03:05:45.739Z,3.50
2022-12-17T03:08:34.165Z,3.80
2022-12-17T03:11:22.132Z,5.40
2022-12-17T03:14:10.631Z,5.60
2022-12-17T03:16:58.526Z,5.10
2022-12-17T03:19:46.515Z,4.70
2022-12-17T03:22:34.433Z,5.00
2022-12-17T03:25:22.595Z,3.70
2022-12-17T03:28:10.636Z,3.50
2022-12-17T03:30:58.343Z,3.00
2022-12-17T03:33:46.015Z,3.00
2022-12-17T03:36:32.895Z,2.70
2022-12-17T03:39:20.883Z,2.40
2022-12-17T03:42:08.932Z,2.90
2022-12-17T03:44:56.899Z,2.00
2022-12-17T03:47:44.945Z,2.70
2022-12-17T03:50:33.074Z,2.70
2022-12-17T03:53:22.875Z,5.10
2022-12-17T03:56:10.812Z,5.10
2022-12-17T03:58:58.591Z,5.90
2022-12-17T04:01:46.772Z,6.10
2022-12-17T04:04:34.630Z,5.10
2022-12-17T04:07:22.524Z,5.10
2022-12-17T04:10:10.355Z,3.40
2022-12-17T04:12:58.398Z,3.00
2022-12-17T04:15:46.274Z,3.10
2022-12-17T04:18:34.142Z,2.70
2022-12-17T04:21:22.139Z,2.60
2022-12-17T04:24:11.931Z,2.40
2022-12-17T04:26:59.989Z,2.10
2022-12-17T04:29:47.576Z,2.00
2022-12-17T04:32:35.727Z,2.10
2022-12-17T04:35:24.133Z,2.10
2022-12-17T04:38:11.377Z,1.40
2022-12-17T04:40:59.492Z,2.70
2022-12-17T04:43:47.470Z,4.10
2022-12-17T04:46:35.478Z,5.40
2022-12-17T04:49:23.612Z,5.10
2022-12-17T04:52:11.344Z,4.10
2022-12-17T04:54:59.245Z,3.80
2022-12-17T04:57:47.003Z,4.40
2022-12-17T05:00:35.530Z,4.70
2022-12-17T05:03:28.413Z,5.50
2022-12-17T05:06:16.322Z,4.50
2022-12-17T05:09:04.225Z,3.70
2022-12-17T05:11:51.885Z,4.10
2022-12-17T05:14:39.859Z,3.60
2022-12-17T05:17:27.573Z,2.70
2022-12-17T05:20:15.086Z,3.10
2022-12-17T05:23:03.112Z,3.20
2022-12-17T05:25:50.960Z,3.60
2022-12-17T05:28:38.696Z,2.80
2022-12-17T05:31:29.163Z,3.80
2022-12-17T05:34:13.627Z,4.80
2022-12-17T05:37:01.750Z,5.60
2022-12-17T05:39:49.790Z,6.60
2022-12-17T05:42:37.788Z,4.60
2022-12-17T05:45:26.996Z,4.80
2022-12-17T05:48:18.078Z,4.80
2022-12-17T05:51:10.416Z,5.80
2022-12-17T05:53:58.459Z,5.80
2022-12-17T05:56:46.152Z,3.80
2022-12-17T05:59:34.211Z,4.70
2022-12-17T06:02:22.308Z,5.80
2022-12-17T06:05:12.602Z,5.50
2022-12-17T06:08:00.644Z,5.80
2022-12-17T06:10:48.610Z,3.10
2022-12-17T06:13:36.970Z,3.70
2022-12-17T06:16:25.512Z,4.80
2022-12-17T06:19:13.795Z,5.50
2022-12-17T06:22:01.672Z,7.50
2022-12-17T06:24:49.208Z,6.40
2022-12-17T06:27:37.402Z,5.80
2022-12-17T06:30:26.939Z,5.10
2022-12-17T06:33:25.221Z,3.90
2022-12-17T06:36:21.318Z,4.10
2022-12-17T06:39:10.622Z,3.70
2022-12-17T06:42:04.277Z,3.90
2022-12-17T06:44:53.555Z,4.20
2022-12-17T06:47:41.459Z,4.00
2022-12-17T06:50:29.629Z,4.70
2022-12-17T06:53:22.259Z,4.60
2022-12-17T06:56:11.118Z,4.80
2022-12-17T06:58:59.033Z,5.80
2022-12-17T07:01:47.347Z,6.30
2022-12-17T07:04:35.530Z,5.30
2022-12-17T07:07:23.569Z,10.70
2022-12-17T07:10:14.341Z,12.10
2022-12-17T07:13:03.136Z,9.90
2022-12-17T07:15:52.687Z,9.50
2022-12-17T07:18:41.659Z,9.10
2022-12-17T07:21:30.848Z,6.70
2022-12-17T07:24:19.940Z,6.60
2022-12-17T07:27:08.190Z,6.60
2022-12-17T07:29:57.905Z,7.80
2022-12-17T07:32:46.419Z,7.60
2022-12-17T07:35:35.754Z,9.40
2022-12-17T07:38:25.241Z,8.80
2022-12-17T07:41:14.810Z,7.40
2022-12-17T07:44:04.280Z,8.30
2022-12-17T07:46:54.862Z,9.80
2022-12-17T07:49:43.780Z,18.40
2022-12-17T07:52:32.559Z,19.10
2022-12-17T07:55:21.332Z,15.70
2022-12-17T07:58:17.807Z,10.50
2022-12-17T08:01:07.096Z,8.20
2022-12-17T08:03:56.625Z,7.40
2022-12-17T08:06:46.504Z,8.80
2022-12-17T08:09:35.671Z,7.00
2022-12-17T08:19:45.067Z,11.30
2022-12-17T08:22:33.186Z,9.80
2022-12-17T08:25:21.317Z,9.90
2022-12-17T08:28:41.536Z,7.60
2022-12-17T08:31:23.676Z,8.40
2022-12-17T08:34:11.651Z,10.60
2022-12-17T08:36:59.748Z,9.40
2022-12-17T08:39:47.575Z,7.30
2022-12-17T08:42:35.488Z,20.80
2022-12-17T08:45:24.367Z,16.10
2022-12-17T08:48:12.324Z,14.10
2022-12-17T08:50:59.941Z,12.80
2022-12-17T08:53:47.848Z,12.80
2022-12-17T08:56:35.851Z,13.50
2022-12-17T08:59:23.760Z,10.40
2022-12-17T09:02:11.770Z,12.10
2022-12-17T09:05:00.114Z,12.20
2022-12-17T09:07:48.277Z,15.10
2022-12-17T09:10:36.156Z,14.00
2022-12-17T09:13:26.398Z,14.50
2022-12-17T09:16:15.454Z,15.20
2022-12-17T09:19:04.482Z,17.60
2022-12-17T09:22:07.018Z,15.40
2022-12-17T09:24:55.222Z,14.40
2022-12-17T09:27:51.541Z,14.70
2022-12-17T09:30:39.619Z,15.10
2022-12-17T09:33:27.980Z,13.10
2022-12-17T09:36:16.163Z,12.40
2022-12-17T09:39:04.008Z,13.10
2022-12-17T09:41:58.711Z,13.60
2022-12-17T09:44:52.602Z,12.70
2022-12-17T09:47:47.585Z,12.90
2022-12-17T09:50:36.240Z,12.80
2022-12-17T09:53:35.489Z,13.20
2022-12-17T09:56:24.884Z,13.90
2022-12-17T09:59:13.152Z,14.40
2022-12-17T10:02:01.455Z,14.70
2022-12-17T10:04:55.856Z,14.20
2022-12-17T10:07:47.299Z,15.50
2022-12-17T10:10:38.295Z,12.50
2022-12-17T10:13:31.366Z,12.60
2022-12-17T10:16:19.612Z,12.40
2022-12-17T10:19:09.773Z,12.20
2022-12-17T10:22:10.137Z,12.00
2022-12-17T10:25:05.147Z,12.30
2022-12-17T10:27:53.074Z,14.10
2022-12-17T10:30:41.068Z,10.50
2022-12-17T10:33:35.948Z,13.20
2022-12-17T10:36:37.938Z,11.80
2022-12-17T10:39:30.749Z,12.20
2022-12-17T10:42:18.741Z,10.20
2022-12-17T10:45:06.718Z,7.80
2022-12-17T10:47:54.764Z,13.70
2022-12-17T10:50:43.576Z,15.20
2022-12-17T10:53:39.549Z,7.50
2022-12-17T10:56:41.138Z,13.50
2022-12-17T10:59:32.957Z,14.30
2022-12-17T11:02:21.124Z,10.20
2022-12-17T11:05:27.585Z,17.00
2022-12-17T11:08:16.374Z,15.20
2022-12-17T11:11:05.024Z,15.80
2022-12-17T11:13:55.048Z,12.70
2022-12-17T11:16:44.965Z,13.70
2022-12-17T11:19:49.790Z,14.30
2022-12-17T11:22:44.117Z,16.80
2022-12-17T11:25:43.523Z,12.30
2022-12-17T11:28:36.835Z,13.40
2022-12-17T11:31:33.946Z,12.70
2022-12-17T11:34:27.820Z,15.10
2022-12-17T11:37:20.095Z,12.30
2022-12-17T11:40:13.119Z,11.80
2022-12-17T11:43:06.811Z,13.60
2022-12-17T11:45:58.082Z,12.70
2022-12-17T11:48:49.643Z,14.20
2022-12-17T11:51:41.478Z,13.80
2022-12-17T11:54:33.621Z,15.50
2022-12-17T11:57:31.180Z,15.70
2022-12-17T12:00:22.959Z,16.40
2022-12-17T12:03:18.701Z,11.80
2022-12-17T12:06:11.239Z,14.40
2022-12-17T12:09:03.904Z,15.50
2022-12-17T12:11:59.126Z,16.00
2022-12-17T12:14:53.736Z,12.60
2022-12-17T12:17:56.206Z,10.80
2022-12-17T12:20:57.582Z,12.20
2022-12-17T12:23:57.562Z,15.00
2022-12-17T12:26:48.634Z,15.60
2022-12-17T12:29:49.377Z,17.00
2022-12-17T12:32:40.991Z,12.60
2022-12-17T12:35:35.486Z,14.20
2022-12-17T12:38:24.998Z,14.90
2022-12-17T12:41:17.354Z,15.50
2022-12-17T12:44:09.926Z,18.00
2022-12-17T12:47:08.304Z,15.50
2022-12-17T12:50:02.055Z,14.10
2022-12-17T12:52:51.329Z,13.60
2022-12-17T12:55:39.153Z,9.40
2022-12-17T12:58:43.920Z,15.10
2022-12-17T13:01:43.496Z,13.10
2022-12-17T13:04:48.486Z,13.80
2022-12-17T13:07:30.032Z,12.30
2022-12-17T13:10:00.881Z,11.10
2022-12-17T13:12:42.307Z,16.60
2022-12-17T13:15:33.353Z,19.80
2022-12-17T13:18:17.126Z,15.00
2022-12-17T13:20:59.894Z,16.80
2022-12-17T13:23:33.564Z,15.20
2022-12-17T13:26:24.042Z,11.40
2022-12-17T13:29:04.952Z,12.40
2022-12-17T13:31:48.447Z,15.70
2022-12-17T13:34:25.942Z,14.60
2022-12-17T13:37:00.830Z,13.30
2022-12-17T13:39:42.918Z,13.70
2022-12-17T13:42:23.333Z,13.70
2022-12-17T13:44:56.339Z,17.70
2022-12-17T13:50:32.874Z,15.40
2022-12-17T13:52:48.241Z,13.40
2022-12-17T13:55:22.763Z,11.10
2022-12-17T13:57:53.564Z,13.30
2022-12-17T14:00:27.009Z,10.00
2022-12-17T14:02:57.687Z,11.30
2022-12-17T14:05:30.720Z,17.40
2022-12-17T14:10:31.576Z,11.70
2022-12-17T14:13:07.250Z,17.00
2022-12-17T14:15:37.829Z,16.10
2022-12-17T14:18:11.291Z,15.30
2022-12-17T14:20:42.760Z,8.70
2022-12-17T14:23:20.042Z,18.10
2022-12-17T14:25:50.516Z,16.80
2022-12-17T14:28:30.681Z,13.60
2022-12-17T14:34:08.486Z,20.50
2022-12-17T14:36:40.496Z,20.40
2022-12-17T14:39:20.371Z,18.40
2022-12-17T14:42:09.458Z,16.80
2022-12-17T14:44:48.811Z,18.20
2022-12-17T14:47:22.100Z,18.00
2022-12-17T14:49:56.803Z,12.10
2022-12-17T14:52:36.253Z,17.30
2022-12-17T14:55:39.480Z,20.80
2022-12-17T14:58:22.026Z,22.50
2022-12-17T15:00:56.512Z,20.50
2022-12-17T15:03:29.393Z,17.90
2022-12-17T15:06:02.189Z,13.50
2022-12-17T15:08:38.679Z,23.60
2022-12-17T15:11:10.267Z,20.80
2022-12-17T15:13:40.767Z,15.80
2022-12-17T15:16:11.731Z,16.00
2022-12-17T15:18:42.166Z,17.90
2022-12-17T15:21:13.847Z,20.10
2022-12-17T15:23:46.233Z,22.90
2022-12-17T15:26:17.346Z,22.10
2022-12-17T15:28:48.078Z,16.00
2022-12-17T15:31:24.472Z,19.70
2022-12-17T15:33:55.951Z,19.40
2022-12-17T15:36:26.406Z,18.80
2022-12-17T15:38:57.376Z,18.50
2022-12-17T15:41:45.181Z,19.10
2022-12-17T15:44:15.619Z,21.40
2022-12-17T15:46:46.043Z,19.20
2022-12-17T15:49:16.547Z,21.20
2022-12-17T15:51:46.966Z,22.80
2022-12-17T15:54:17.475Z,25.50
2022-12-17T15:56:54.579Z,32.30
2022-12-17T15:59:25.053Z,32.30
2022-12-17T16:01:55.492Z,30.20
2022-12-17T16:04:25.951Z,29.70
2022-12-17T16:06:56.372Z,31.10
2022-12-17T16:09:28.786Z,26.50
2022-12-17T16:11:59.634Z,29.50
2022-12-17T16:14:30.102Z,33.40
2022-12-17T16:17:00.586Z,35.70
2022-12-17T16:19:31.036Z,33.80
2022-12-17T16:22:01.506Z,33.60
2022-12-17T16:24:31.892Z,29.50
2022-12-17T16:27:04.556Z,25.70
2022-12-17T16:29:35.272Z,28.40
2022-12-17T16:32:06.487Z,29.70
2022-12-17T16:34:36.904Z,27.00
2022-12-17T16:37:07.431Z,24.70
2022-12-17T16:39:37.952Z,29.80
2022-12-17T16:42:08.680Z,31.50
2022-12-17T16:44:39.500Z,31.30
2022-12-17T16:47:09.973Z,29.80
2022-12-17T16:49:40.406Z,30.90
2022-12-17T16:52:10.845Z,29.20
2022-12-17T16:54:41.327Z,28.40
2022-12-17T16:57:11.708Z,32.40
2022-12-17T16:59:42.216Z,30.30
2022-12-17T17:02:14.835Z,32.80
2022-12-17T17:04:45.395Z,21.80
2022-12-17T17:07:15.870Z,28.50
2022-12-17T17:09:46.281Z,30.20
2022-12-17T17:12:16.735Z,27.70
2022-12-17T17:14:47.194Z,23.40
2022-12-17T17:17:17.575Z,27.30
2022-12-17T17:19:47.976Z,12.60
2022-12-17T17:22:18.358Z,4.10
2022-12-17T17:24:49.846Z,6.80
2022-12-17T17:27:20.220Z,8.00
2022-12-17T17:29:50.662Z,5.00
2022-12-17T17:32:21.048Z,10.50
2022-12-17T17:34:51.583Z,9.30
2022-12-17T17:37:22.004Z,9.70
2022-12-17T17:39:52.448Z,12.20
2022-12-17T17:42:22.772Z,10.20
2022-12-17T17:44:53.925Z,21.40
2022-12-17T17:47:24.366Z,12.70
2022-12-17T17:49:54.766Z,10.50
2022-12-17T17:52:25.146Z,30.70
2022-12-17T17:54:56.288Z,31.50
2022-12-17T17:57:26.730Z,26.10
2022-12-17T17:59:57.158Z,26.90
2022-12-17T18:02:27.812Z,14.00
2022-12-17T18:04:58.310Z,8.60
2022-12-17T18:07:28.811Z,9.30
2022-12-17T18:09:59.854Z,6.80
2022-12-17T18:12:47.583Z,7.30
2022-12-17T18:15:18.855Z,27.30
2022-12-17T18:17:52.251Z,39.00
2022-12-17T18:20:22.977Z,37.10
2022-12-17T18:22:53.399Z,21.60
2022-12-17T18:25:23.813Z,14.10
2022-12-17T18:27:55.393Z,7.90
2022-12-17T18:30:26.252Z,9.50
2022-12-17T18:32:57.328Z,8.40
2022-12-17T18:35:28.764Z,9.10
2022-12-17T18:37:59.150Z,8.50
2022-12-17T18:40:33.291Z,7.90
2022-12-17T18:43:21.570Z,7.10
2022-12-17T18:45:52.144Z,7.40
2022-12-17T18:48:23.472Z,8.10
2022-12-17T18:50:53.863Z,10.60
2022-12-17T18:53:24.251Z,10.40
2022-12-17T18:55:54.590Z,10.90
2022-12-17T18:58:25.553Z,15.10
2022-12-17T19:00:56.022Z,13.10
2022-12-17T19:03:29.227Z,11.60
2022-12-17T19:05:59.916Z,14.60
2022-12-17T19:08:30.324Z,18.40
2022-12-17T19:11:06.922Z,22.90
2022-12-17T19:13:38.044Z,25.30
2022-12-17T19:16:11.394Z,24.70
2022-12-17T19:18:42.908Z,21.10
2022-12-17T19:21:15.914Z,20.30
2022-12-17T19:23:47.265Z,22.00
2022-12-17T19:26:19.642Z,26.60
2022-12-17T19:31:21.890Z,22.30
2022-12-17T19:33:56.126Z,17.70
2022-12-17T19:36:28.623Z,22.50
2022-12-17T19:39:01.110Z,18.10
2022-12-17T19:41:32.952Z,16.60
2022-12-17T19:44:05.468Z,13.70
2022-12-17T19:46:36.968Z,11.90
2022-12-17T19:49:07.720Z,14.40
2022-12-17T19:51:39.549Z,16.20
2022-12-17T19:54:11.129Z,19.70
2022-12-17T19:56:41.812Z,18.80
2022-12-17T19:59:13.112Z,16.10
2022-12-17T20:01:45.629Z,14.80
2022-12-17T20:04:17.012Z,15.20
2022-12-17T20:06:47.664Z,13.50
2022-12-17T20:09:18.226Z,12.90
2022-12-17T20:11:48.742Z,14.00
2022-12-17T20:14:20.824Z,15.80
2022-12-17T20:16:52.643Z,14.70
2022-12-17T20:19:25.145Z,12.70
2022-12-17T20:21:57.025Z,13.60
2022-12-17T20:24:31.532Z,15.60
2022-12-17T20:27:03.912Z,14.70
2022-12-17T20:29:34.351Z,11.40
2022-12-17T20:32:05.019Z,10.70
2022-12-17T20:34:36.314Z,10.20
2022-12-17T20:37:06.818Z,11.40
2022-12-17T20:39:37.632Z,13.50
2022-12-17T20:42:09.153Z,15.90
2022-12-17T20:44:39.841Z,14.40
2022-12-17T20:47:10.571Z,14.40
2022-12-17T20:49:41.241Z,13.00
2022-12-17T20:52:11.631Z,13.20
2022-12-17T20:54:42.347Z,13.20
2022-12-17T20:57:13.083Z,20.80
2022-12-17T20:59:43.948Z,15.50
2022-12-17T21:02:14.523Z,18.00
2022-12-17T21:04:45.286Z,17.60
2022-12-17T21:07:17.142Z,14.50
2022-12-17T21:09:48.224Z,14.90
2022-12-17T21:12:19.132Z,14.50
2022-12-17T21:14:51.431Z,14.40
2022-12-17T21:17:24.159Z,13.70
2022-12-17T21:19:56.037Z,13.80
2022-12-17T21:22:29.407Z,12.70
2022-12-17T21:25:01.466Z,12.90
2022-12-17T21:27:34.177Z,15.50
2022-12-17T21:30:13.497Z,15.10
2022-12-17T21:32:46.154Z,15.70
2022-12-17T21:35:18.829Z,26.90
2022-12-17T21:37:51.170Z,22.70
2022-12-17T21:40:25.456Z,13.80
2022-12-17T21:43:02.517Z,13.60
2022-12-17T21:45:39.188Z,12.80
2022-12-17T21:48:15.003Z,15.30
2022-12-17T21:50:48.214Z,15.50
2022-12-17T21:53:21.575Z,14.90
2022-12-17T21:55:55.287Z,14.40
2022-12-17T21:58:28.554Z,14.60
2022-12-17T22:01:08.304Z,15.30
2022-12-17T22:03:53.928Z,14.40
2022-12-17T22:06:32.018Z,14.10
2022-12-17T22:09:16.253Z,12.90
2022-12-17T22:19:25.119Z,19.80
2022-12-17T22:21:58.095Z,15.50
2022-12-17T22:24:32.542Z,13.30
2022-12-17T22:27:09.616Z,13.50
2022-12-17T22:29:58.659Z,13.40
2022-12-17T22:32:46.515Z,13.20
2022-12-17T22:36:11.939Z,12.90
2022-12-17T22:40:53.920Z,15.40
2022-12-17T22:44:33.705Z,20.40
2022-12-17T22:44:51.203Z,23.00
2022-12-17T22:46:53.265Z,23.20
2022-12-17T22:49:24.188Z,19.60
2022-12-17T22:51:54.767Z,20.60
2022-12-17T22:54:25.419Z,20.20
2022-12-17T22:57:34.943Z,22.10
2022-12-17T22:59:46.518Z,16.70
2022-12-17T23:02:17.079Z,16.40
2022-12-17T23:04:47.589Z,17.30
2022-12-17T23:07:17.998Z,17.10
2022-12-17T23:09:48.442Z,16.70
2022-12-17T23:12:32.812Z,16.40
2022-12-17T23:15:03.861Z,14.30
2022-12-17T23:17:35.517Z,17.80
2022-12-17T23:20:07.852Z,14.40
2022-12-17T23:22:38.286Z,15.20
2022-12-17T23:25:09.980Z,20.40
2022-12-17T23:27:40.801Z,22.00
2022-12-17T23:30:13.432Z,28.10
2022-12-17T23:32:43.810Z,27.50
2022-12-17T23:35:15.351Z,23.00
2022-12-17T23:37:45.837Z,21.80
2022-12-17T23:40:16.762Z,22.30
2022-12-17T23:42:47.162Z,20.50
2022-12-17T23:45:17.626Z,19.80
2022-12-17T23:47:47.988Z,17.20
2022-12-17T23:50:18.539Z,17.20
2022-12-17T23:52:48.899Z,17.00
2022-12-17T23:55:19.513Z,16.60
2022-12-17T23:57:49.880Z,17.70
